Time;durP1;ratioP1;P1;durP2;ratioP2;P2;SDS_P1;SDS_P2;PMS_P1;PMS_P2;Temp;Humidity;BMP_temperature;BMP_pressure;BME280_temperature;BME280_humidity;BME280_pressure;Samples;Min_cycle;Max_cycle;Signal;HPM_P1;HPM_P2
2022/07/08 00:00:25;;;;;;;6.15;1.50;;;23.10;83.60;;;;;;5097434;28;20055;-74
2022/07/08 00:02:51;;;;;;;6.35;1.88;;;23.40;83.60;;;;;;5084323;28;20040;-73
2022/07/08 00:05:16;;;;;;;5.70;1.63;;;23.50;84.10;;;;;;5107194;28;20116;-73
2022/07/08 00:07:42;;;;;;;4.97;1.63;;;23.10;83.40;;;;;;5115428;28;20046;-74
2022/07/08 00:10:08;;;;;;;7.45;1.80;;;23.00;83.60;;;;;;5115520;28;20607;-74
2022/07/08 00:12:34;;;;;;;5.57;1.40;;;;;;;;;;5114424;28;20178;-74
2022/07/08 00:15:00;;;;;;;4.40;1.50;;;23.20;83.50;;;;;;5102935;28;20047;-74
2022/07/08 00:17:27;;;;;;;5.63;1.77;;;23.20;80.50;;;;;;5106152;28;20060;-74
2022/07/08 00:19:53;;;;;;;4.97;1.83;;;23.20;83.50;;;;;;5088527;28;20153;-73
2022/07/08 00:22:18;;;;;;;4.75;1.48;;;23.30;83.40;;;;;;5094155;28;20118;-73
2022/07/08 00:24:44;;;;;;;5.45;1.30;;;23.10;83.50;;;;;;5095347;28;20052;-73
2022/07/08 00:27:10;;;;;;;5.50;1.60;;;23.00;83.50;;;;;;5103070;28;20582;-74
2022/07/08 00:29:35;;;;;;;3.55;1.58;;;23.00;83.40;;;;;;5100314;28;20043;-74
2022/07/08 00:32:01;;;;;;;3.50;1.42;;;23.20;83.40;;;;;;5095389;28;20048;-74
2022/07/08 00:34:27;;;;;;;5.60;1.48;;;22.80;83.20;;;;;;5112170;28;20047;-74
2022/07/08 00:36:53;;;;;;;5.93;1.42;;;;;;;;;;5095421;28;20058;-67
2022/07/08 00:39:19;;;;;;;6.32;2.05;;;23.10;83.40;;;;;;5095179;28;20389;-62
2022/07/08 00:41:44;;;;;;;4.65;1.50;;;22.90;80.40;;;;;;5083243;28;20051;-62
2022/07/08 00:44:10;;;;;;;5.90;1.50;;;23.10;83.10;;;;;;5111710;28;20116;-70
2022/07/08 00:46:36;;;;;;;4.30;1.30;;;22.80;83.10;;;;;;5095576;28;20051;-72
2022/07/08 00:49:02;;;;;;;3.25;1.27;;;23.10;83.30;;;;;;5104778;28;20135;-72
2022/07/08 00:51:28;;;;;;;3.95;1.40;;;;;;;;;;5104824;28;20534;-65
2022/07/08 00:53:54;;;;;;;3.17;1.40;;;23.30;83.80;;;;;;5086932;28;20122;-62
2022/07/08 00:56:20;;;;;;;3.03;1.27;;;22.90;82.70;;;;;;5105250;28;20123;-63
2022/07/08 00:58:47;;;;;;;3.33;1.20;;;22.90;83.20;;;;;;5094907;28;20129;-62
2022/07/08 01:01:12;;;;;;;5.32;1.40;;;22.70;83.10;;;;;;5090960;28;20543;-62
2022/07/08 01:03:38;;;;;;;8.73;1.50;;;23.00;83.30;;;;;;5094498;28;20090;-62
2022/07/08 01:06:04;;;;;;;6.78;1.40;;;23.10;83.60;;;;;;5090341;28;20405;-62
2022/07/08 01:08:30;;;;;;;3.22;1.40;;;23.00;83.20;;;;;;5096579;28;20464;-62
2022/07/08 01:10:56;;;;;;;5.13;1.42;;;23.00;83.20;;;;;;5100188;28;20105;-72
2022/07/08 01:13:22;;;;;;;4.13;1.40;;;22.90;83.10;;;;;;5093266;28;20040;-68
2022/07/08 01:15:48;;;;;;;3.60;1.20;;;22.90;83.10;;;;;;5112499;28;20072;-72
2022/07/08 01:18:26;;;;;;;4.53;1.35;;;22.90;83.20;;;;;;5099608;28;20367;-72
2022/07/08 01:20:52;;;;;;;5.25;1.30;;;22.90;81.30;;;;;;5086872;28;20043;-72
2022/07/08 01:23:18;;;;;;;3.97;1.20;;;23.00;83.10;;;;;;5107276;28;20066;-71
2022/07/08 01:25:44;;;;;;;5.05;1.25;;;22.80;83.20;;;;;;5053413;28;20561;-72
2022/07/08 01:28:09;;;;;;;5.53;1.60;;;23.00;83.20;;;;;;5095480;28;20035;-72
2022/07/08 01:30:35;;;;;;;5.30;1.35;;;22.90;80.50;;;;;;5114085;28;20046;-72
2022/07/08 01:33:01;;;;;;;5.55;1.65;;;22.90;83.20;;;;;;5098171;28;20090;-62
2022/07/08 01:35:26;;;;;;;6.70;1.60;;;22.60;83.00;;;;;;5102665;28;20493;-63
2022/07/08 01:37:52;;;;;;;4.78;1.73;;;22.90;83.30;;;;;;5113756;28;20043;-62
2022/07/08 01:40:18;;;;;;;5.13;1.20;;;22.80;83.50;;;;;;5105614;28;20047;-62
2022/07/08 01:42:44;;;;;;;6.45;1.63;;;22.70;80.20;;;;;;5108864;28;20509;-62
2022/07/08 01:45:09;;;;;;;5.20;1.45;;;22.60;82.90;;;;;;5059061;28;20172;-62
2022/07/08 01:47:35;;;;;;;5.07;1.85;;;22.80;83.20;;;;;;5108328;28;20396;-62
2022/07/08 01:50:01;;;;;;;7.30;1.70;;;22.90;83.20;;;;;;5105023;28;20077;-62
2022/07/08 01:52:27;;;;;;;6.60;2.10;;;23.00;83.10;;;;;;5114566;28;20120;-62
2022/07/08 01:54:52;;;;;;;4.90;1.55;;;22.90;83.10;;;;;;5113365;28;20057;-63
2022/07/08 01:57:21;;;;;;;6.40;1.60;;;22.80;83.00;;;;;;5094403;28;20400;-62
2022/07/08 01:59:48;;;;;;;6.40;1.50;;;22.50;83.00;;;;;;5095439;28;20112;-62
2022/07/08 02:02:16;;;;;;;4.88;1.33;;;22.80;80.40;;;;;;5067116;28;20176;-62
2022/07/08 02:04:41;;;;;;;4.75;1.65;;;23.00;83.50;;;;;;5075422;28;20056;-62
2022/07/08 02:07:07;;;;;;;3.58;1.38;;;22.60;82.90;;;;;;5110796;28;20042;-62
2022/07/08 02:09:34;;;;;;;4.38;1.35;;;22.80;83.00;;;;;;5095354;28;20051;-62
2022/07/08 02:14:47;;;;;;;4.47;1.67;;;22.70;83.00;;;;;;5096147;28;20134;-62
2022/07/08 02:17:14;;;;;;;5.80;1.63;;;22.70;83.50;;;;;;5105912;28;20040;-62
2022/07/08 02:19:40;;;;;;;5.78;1.65;;;22.80;83.00;;;;;;5107121;28;20054;-62
2022/07/08 02:22:06;;;;;;;4.13;1.20;;;22.40;82.80;;;;;;5096327;28;20504;-62
2022/07/08 02:24:32;;;;;;;6.93;1.52;;;22.70;83.00;;;;;;5091990;28;20079;-62
2022/07/08 02:26:58;;;;;;;5.95;1.30;;;22.50;83.10;;;;;;5095464;28;20047;-62
2022/07/08 02:29:23;;;;;;;5.22;1.90;;;22.80;81.90;;;;;;5093572;28;20461;-63
2022/07/08 02:31:50;;;;;;;5.35;1.38;;;;;;;;;;5094072;28;20045;-73
2022/07/08 02:34:15;;;;;;;4.15;1.38;;;22.40;82.80;;;;;;5113156;28;20100;-62
2022/07/08 02:36:41;;;;;;;3.15;1.20;;;22.60;82.90;;;;;;5093101;28;20052;-62
2022/07/08 02:39:07;;;;;;;4.85;1.70;;;22.70;83.00;;;;;;5094315;28;20046;-62
2022/07/08 02:41:32;;;;;;;4.80;1.55;;;22.50;83.00;;;;;;5093435;28;20097;-62
2022/07/08 02:43:58;;;;;;;4.68;1.40;;;22.70;80.10;;;;;;5113686;28;20047;-62
2022/07/08 02:46:24;;;;;;;5.70;2.13;;;22.60;82.90;;;;;;5095564;28;20051;-63
2022/07/08 02:48:50;;;;;;;4.55;1.27;;;;;;;;;;5075123;28;20130;-63
2022/07/08 02:51:15;;;;;;;6.75;1.40;;;22.50;82.80;;;;;;5109420;28;20047;-63
2022/07/08 02:53:42;;;;;;;6.18;1.60;;;22.60;83.10;;;;;;5091074;28;20047;-62
2022/07/08 02:56:08;;;;;;;5.47;1.67;;;22.70;83.10;;;;;;5114427;28;20058;-62
2022/07/08 02:58:33;;;;;;;3.72;1.23;;;22.60;83.00;;;;;;5082510;28;20047;-64
2022/07/08 03:00:59;;;;;;;3.40;1.50;;;22.80;80.20;;;;;;5113986;28;20068;-62
2022/07/08 03:03:25;;;;;;;3.47;1.20;;;22.50;80.00;;;;;;5107102;28;20116;-62
2022/07/08 03:05:50;;;;;;;5.35;1.30;;;22.60;83.00;;;;;;5091696;28;20378;-62
2022/07/08 03:08:16;;;;;;;3.90;1.25;;;22.40;82.80;;;;;;5095281;28;20503;-62
2022/07/08 03:10:42;;;;;;;4.60;1.92;;;22.60;83.00;;;;;;5097507;28;20085;-62
2022/07/08 03:13:07;;;;;;;5.28;1.85;;;22.60;83.00;;;;;;5097142;28;20496;-62
2022/07/08 03:15:34;;;;;;;3.38;1.15;;;22.70;83.00;;;;;;5098009;28;20454;-63
2022/07/08 03:18:00;;;;;;;6.32;1.50;;;22.60;83.00;;;;;;5102598;28;20048;-62
2022/07/08 03:20:26;;;;;;;4.78;1.40;;;22.40;82.80;;;;;;5097137;28;20048;-62
2022/07/08 03:22:52;;;;;;;3.45;1.17;;;22.50;79.40;;;;;;5111595;28;20061;-62
2022/07/08 03:25:17;;;;;;;5.72;1.30;;;22.70;80.20;;;;;;5096154;28;20404;-62
2022/07/08 03:27:43;;;;;;;3.17;1.20;;;22.50;83.20;;;;;;5113334;28;20040;-62
2022/07/08 03:30:09;;;;;;;4.55;1.30;;;22.40;79.90;;;;;;5080506;28;20127;-62
2022/07/08 03:32:35;;;;;;;3.58;1.15;;;22.50;83.00;;;;;;5097922;28;20443;-62
2022/07/08 03:35:01;;;;;;;5.05;1.30;;;22.60;83.00;;;;;;5080174;28;20046;-62
2022/07/08 03:37:26;;;;;;;3.83;1.25;;;22.50;82.90;;;;;;5114323;28;20040;-62
2022/07/08 03:39:53;;;;;;;4.82;1.50;;;22.50;83.00;;;;;;5106299;28;20039;-62
2022/07/08 03:42:19;;;;;;;3.80;1.20;;;22.20;82.60;;;;;;5095273;28;20044;-62
2022/07/08 03:44:45;;;;;;;5.05;1.23;;;22.60;82.90;;;;;;5097290;28;20104;-62
2022/07/08 03:47:11;;;;;;;2.55;1.17;;;22.60;83.00;;;;;;5105013;28;20097;-62
2022/07/08 03:49:37;;;;;;;3.70;1.00;;;22.40;83.00;;;;;;5096374;28;20052;-62
2022/07/08 03:52:03;;;;;;;4.38;1.40;;;22.30;82.80;;;;;;5096465;28;20485;-62
2022/07/08 03:54:29;;;;;;;6.45;1.67;;;;;;;;;;5109624;28;20131;-62
2022/07/08 03:56:54;;;;;;;4.10;1.25;;;22.50;82.60;;;;;;5108728;28;20043;-63
2022/07/08 03:59:20;;;;;;;5.05;1.38;;;22.40;82.70;;;;;;5097951;28;20058;-62
2022/07/08 04:01:46;;;;;;;4.55;1.40;;;22.40;82.90;;;;;;5108437;28;20036;-62
2022/07/08 04:04:12;;;;;;;4.95;1.35;;;22.50;82.90;;;;;;5103590;28;20040;-62
2022/07/08 04:06:37;;;;;;;5.78;1.25;;;22.40;82.40;;;;;;5110425;28;20043;-62
2022/07/08 04:09:03;;;;;;;4.85;1.40;;;22.50;83.20;;;;;;5096793;28;20130;-62
2022/07/08 04:11:29;;;;;;;6.05;1.45;;;22.40;82.80;;;;;;5110422;28;20440;-63
2022/07/08 04:13:56;;;;;;;3.72;1.40;;;22.40;82.60;;;;;;5095738;28;20044;-63
2022/07/08 04:16:22;;;;;;;7.47;1.40;;;22.80;83.00;;;;;;5110566;28;20115;-62
2022/07/08 04:18:49;;;;;;;5.60;1.38;;;;;;;;;;5105670;28;20032;-64
2022/07/08 04:21:15;;;;;;;3.03;1.35;;;22.50;78.40;;;;;;5095749;28;20061;-62
2022/07/08 04:23:41;;;;;;;6.30;1.70;;;22.30;82.50;;;;;;5077274;28;20044;-62
2022/07/08 04:26:07;;;;;;;5.75;1.65;;;22.70;82.80;;;;;;5110933;28;20052;-62
2022/07/08 04:28:33;;;;;;;4.30;1.48;;;22.60;82.60;;;;;;5102774;28;20149;-62
2022/07/08 04:31:00;;;;;;;6.57;1.73;;;22.70;82.50;;;;;;5113805;28;20043;-63
2022/07/08 04:33:25;;;;;;;6.38;1.75;;;22.60;82.50;;;;;;5115602;28;20050;-62
2022/07/08 04:35:51;;;;;;;5.30;1.85;;;22.70;79.70;;;;;;5103313;28;20047;-62
2022/07/08 04:38:17;;;;;;;5.40;1.35;;;22.50;79.10;;;;;;5113972;28;20201;-62
2022/07/08 04:40:43;;;;;;;4.07;1.30;;;22.60;82.40;;;;;;5100333;28;20127;-62
2022/07/08 04:43:09;;;;;;;4.18;1.38;;;22.60;82.50;;;;;;5094883;28;20122;-62
2022/07/08 04:45:35;;;;;;;4.30;1.42;;;;;;;;;;5109711;28;20131;-67
2022/07/08 04:48:01;;;;;;;4.95;1.73;;;22.60;82.30;;;;;;5091957;28;20043;-72
2022/07/08 04:50:27;;;;;;;6.57;1.92;;;22.90;82.50;;;;;;5095122;28;20052;-72
2022/07/08 04:52:53;;;;;;;6.15;1.40;;;22.50;82.20;;;;;;5090307;28;20040;-63
2022/07/08 04:55:27;;;;;;;5.75;1.40;;;22.70;82.20;;;;;;5106519;28;20047;-63
2022/07/08 04:57:55;;;;;;;4.72;1.60;;;22.80;82.30;;;;;;5109284;28;20536;-63
2022/07/08 05:00:20;;;;;;;6.13;1.52;;;22.80;82.30;;;;;;5100659;28;20481;-62
2022/07/08 05:02:46;;;;;;;3.92;1.85;;;23.00;82.30;;;;;;5083180;28;20055;-62
2022/07/08 05:05:12;;;;;;;4.72;1.40;;;23.20;82.00;;;;;;5114449;28;20036;-61
2022/07/08 05:07:38;;;;;;;4.38;1.13;;;23.30;81.60;;;;;;5113141;28;20043;-62
2022/07/08 05:10:04;;;;;;;4.55;1.40;;;23.30;81.20;;;;;;5079956;28;20077;-62
2022/07/08 05:12:30;;;;;;;5.38;1.90;;;23.70;80.90;;;;;;5099406;28;20048;-62
2022/07/08 05:14:55;;;;;;;5.30;1.55;;;23.60;80.50;;;;;;5094674;28;21999;-62
2022/07/08 05:17:21;;;;;;;4.57;1.75;;;;;;;;;;5105798;28;20071;-71
2022/07/08 05:19:47;;;;;;;7.95;1.58;;;24.00;75.80;;;;;;5108751;28;20051;-69
2022/07/08 05:22:13;;;;;;;4.35;1.40;;;24.00;79.60;;;;;;5096269;28;20498;-71
2022/07/08 05:24:38;;;;;;;3.65;1.23;;;24.20;76.80;;;;;;5108922;28;20036;-72
2022/07/08 05:27:06;;;;;;;2.92;1.00;;;24.40;79.70;;;;;;5094906;28;20043;-72
2022/07/08 05:29:33;;;;;;;4.32;1.33;;;24.40;77.00;;;;;;5112922;28;20120;-73
2022/07/08 05:31:59;;;;;;;5.70;1.90;;;24.30;76.50;;;;;;5104394;28;20040;-62
2022/07/08 05:34:25;;;;;;;4.60;1.60;;;24.30;76.90;;;;;;5089017;28;20481;-62
2022/07/08 05:36:51;;;;;;;5.38;1.60;;;;;;;;;;5102858;28;20509;-74
2022/07/08 05:39:17;;;;;;;5.22;1.63;;;24.30;79.40;;;;;;5082601;28;20051;-62
2022/07/08 05:41:43;;;;;;;3.38;1.33;;;24.40;76.80;;;;;;5095553;28;20508;-62
2022/07/08 05:44:09;;;;;;;3.50;1.35;;;;;;;;;;5080065;28;20500;-64
2022/07/08 05:46:35;;;;;;;4.00;1.38;;;24.20;79.20;;;;;;5076828;28;20044;-62
2022/07/08 05:49:00;;;;;;;3.38;1.30;;;24.50;76.50;;;;;;5086691;28;20057;-62
2022/07/08 05:51:26;;;;;;;6.43;1.35;;;24.40;79.30;;;;;;5089663;28;20051;-62
2022/07/08 05:53:55;;;;;;;3.92;1.50;;;24.20;76.30;;;;;;5072341;28;20057;-62
2022/07/08 05:56:21;;;;;;;3.47;1.40;;;24.30;79.30;;;;;;5094243;28;20067;-62
2022/07/08 05:58:47;;;;;;;3.00;1.33;;;24.40;79.40;;;;;;5113156;28;20048;-62
2022/07/08 06:01:13;;;;;;;5.03;1.45;;;24.40;79.40;;;;;;5093494;28;20053;-62
2022/07/08 06:03:39;;;;;;;4.18;1.50;;;24.30;76.50;;;;;;5083625;28;20488;-62
2022/07/08 06:06:05;;;;;;;6.88;2.05;;;24.40;76.70;;;;;;5094706;28;20054;-62
2022/07/08 06:08:31;;;;;;;4.45;1.20;;;24.20;76.10;;;;;;5096695;28;20519;-62
2022/07/08 06:10:58;;;;;;;5.32;1.50;;;;;;;;;;5111431;28;20075;-72
2022/07/08 06:13:24;;;;;;;3.53;1.10;;;24.00;79.60;;;;;;5112574;28;20548;-72
2022/07/08 06:15:50;;;;;;;3.65;1.27;;;24.10;79.60;;;;;;5112084;28;20050;-73
2022/07/08 06:18:16;;;;;;;5.13;1.67;;;24.20;79.80;;;;;;5102375;28;20397;-63
2022/07/08 06:20:41;;;;;;;5.15;1.52;;;24.20;77.10;;;;;;5082854;28;20485;-63
2022/07/08 06:23:07;;;;;;;5.35;1.60;;;24.40;80.00;;;;;;5074908;28;20055;-62
2022/07/08 06:25:35;;;;;;;3.40;1.40;;;24.60;76.90;;;;;;5089041;28;20047;-63
2022/07/08 06:28:01;;;;;;;4.53;1.42;;;24.30;80.20;;;;;;5113065;28;20371;-63
2022/07/08 06:30:26;;;;;;;4.32;1.38;;;24.30;80.10;;;;;;5111516;28;20050;-64
2022/07/08 06:32:52;;;;;;;3.78;1.30;;;24.00;80.10;;;;;;5113471;28;20040;-62
2022/07/08 06:35:18;;;;;;;4.53;1.30;;;24.40;80.10;;;;;;5105156;28;20039;-61
2022/07/08 06:37:44;;;;;;;5.80;1.45;;;24.30;80.10;;;;;;5096244;28;20131;-61
2022/07/08 06:40:11;;;;;;;4.63;1.40;;;24.40;77.40;;;;;;5093337;28;20036;-62
2022/07/08 06:42:36;;;;;;;5.20;1.55;;;24.40;80.10;;;;;;5105312;28;20579;-72
2022/07/08 06:45:02;;;;;;;6.65;1.88;;;24.30;80.00;;;;;;5098337;28;20047;-76
2022/07/08 06:47:28;;;;;;;4.65;1.45;;;24.40;76.80;;;;;;5091029;28;20138;-77
2022/07/08 06:49:54;;;;;;;4.95;1.40;;;24.40;80.20;;;;;;5093951;28;20137;-74
2022/07/08 06:52:20;;;;;;;4.70;1.50;;;24.40;76.90;;;;;;5090982;28;20047;-71
2022/07/08 06:54:47;;;;;;;3.88;1.40;;;24.30;79.50;;;;;;5110457;28;20048;-61
2022/07/08 06:57:14;;;;;;;4.57;1.52;;;24.20;80.60;;;;;;5110899;28;20036;-63
2022/07/08 06:59:40;;;;;;;4.47;1.17;;;24.00;80.40;;;;;;5108082;28;20059;-77
2022/07/08 07:02:05;;;;;;;5.38;1.65;;;24.30;80.60;;;;;;5111053;28;20035;-79
2022/07/08 07:04:31;;;;;;;5.68;1.60;;;24.10;80.60;;;;;;5091458;28;20044;-79
2022/07/08 07:06:57;;;;;;;5.30;1.45;;;24.20;77.50;;;;;;5093055;28;20051;-78
2022/07/08 07:09:23;;;;;;;3.67;1.30;;;24.30;77.40;;;;;;5096625;28;20465;-78
2022/07/08 07:11:49;;;;;;;4.88;1.20;;;24.40;78.10;;;;;;5111517;28;20050;-78
2022/07/08 07:14:16;;;;;;;4.72;1.60;;;24.40;80.90;;;;;;5099609;28;20039;-62
2022/07/08 07:16:43;;;;;;;4.15;1.42;;;24.20;77.40;;;;;;5096494;28;20040;-62
2022/07/08 07:19:11;;;;;;;3.65;1.23;;;24.40;77.80;;;;;;5092401;28;20063;-72
2022/07/08 07:21:38;;;;;;;3.72;1.20;;;24.00;76.70;;;;;;5104125;28;20047;-78
2022/07/08 07:24:04;;;;;;;3.28;1.33;;;24.10;80.90;;;;;;5103195;28;20501;-77
2022/07/08 07:26:30;;;;;;;3.67;1.27;;;24.40;81.30;;;;;;5098765;28;20055;-63
2022/07/08 07:28:56;;;;;;;5.03;1.52;;;;;;;;;;5097366;28;20044;-64
2022/07/08 07:31:22;;;;;;;5.30;1.63;;;24.00;81.10;;;;;;5081789;28;20086;-62
2022/07/08 07:33:49;;;;;;;5.30;1.52;;;24.10;81.20;;;;;;5099683;28;20141;-62
2022/07/08 07:36:15;;;;;;;6.22;2.10;;;24.30;78.20;;;;;;5110058;28;20488;-78
2022/07/08 07:38:41;;;;;;;6.45;1.40;;;24.20;81.60;;;;;;5109980;28;20040;-77
2022/07/08 07:41:06;;;;;;;6.47;1.50;;;24.20;78.60;;;;;;5092826;28;20048;-74
2022/07/08 07:43:32;;;;;;;5.55;1.88;;;24.00;81.40;;;;;;5094313;28;20385;-60
2022/07/08 07:45:58;;;;;;;4.30;1.25;;;24.00;81.90;;;;;;5105483;28;20465;-61
2022/07/08 07:48:23;;;;;;;3.80;1.23;;;24.00;81.90;;;;;;5096599;28;20048;-61
2022/07/08 07:50:49;;;;;;;2.97;1.52;;;24.20;82.20;;;;;;5096557;28;20500;-76
2022/07/08 07:53:15;;;;;;;6.07;1.75;;;;;;;;;;5114239;28;20051;-76
2022/07/08 07:55:41;;;;;;;6.47;1.65;;;23.90;78.40;;;;;;5102615;28;20039;-75
2022/07/08 07:58:07;;;;;;;7.35;1.65;;;24.10;81.90;;;;;;5113986;28;20537;-75
2022/07/08 08:00:33;;;;;;;3.72;1.20;;;24.20;79.10;;;;;;5096353;28;20501;-67
2022/07/08 08:02:58;;;;;;;6.95;1.85;;;23.90;81.90;;;;;;5095198;28;20390;-65
2022/07/08 08:05:24;;;;;;;5.53;1.77;;;24.10;82.30;;;;;;5114946;28;20061;-73
2022/07/08 08:07:50;;;;;;;5.00;1.50;;;24.00;82.20;;;;;;5104837;28;20050;-63
2022/07/08 08:10:16;;;;;;;4.65;1.88;;;23.90;82.30;;;;;;5095657;28;20440;-63
2022/07/08 08:12:42;;;;;;;4.80;1.60;;;24.10;79.20;;;;;;5102301;28;20040;-63
2022/07/08 08:15:08;;;;;;;6.40;1.92;;;24.00;79.00;;;;;;5097032;28;20036;-76
2022/07/08 08:17:40;;;;;;;6.68;1.90;;;24.00;82.20;;;;;;5072904;28;20043;-62
2022/07/08 08:20:07;;;;;;;4.13;1.65;;;23.90;79.50;;;;;;5087075;28;20439;-61
2022/07/08 08:22:33;;;;;;;5.15;1.67;;;24.30;79.50;;;;;;5095700;28;20437;-62
2022/07/08 08:24:59;;;;;;;5.07;1.88;;;24.20;79.30;;;;;;5093314;28;20044;-61
2022/07/08 08:27:24;;;;;;;7.88;2.65;;;23.80;82.40;;;;;;5111294;28;20063;-62
2022/07/08 08:29:50;;;;;;;5.15;1.48;;;23.90;80.80;;;;;;5105654;28;20073;-63
2022/07/08 08:32:16;;;;;;;6.28;1.75;;;;;;;;;;5111737;28;20704;-67
2022/07/08 08:34:42;;;;;;;5.43;1.80;;;23.90;82.50;;;;;;5115338;28;20051;-61
2022/07/08 08:37:08;;;;;;;5.20;1.48;;;24.10;83.00;;;;;;5098086;28;20455;-62
2022/07/08 08:39:34;;;;;;;5.70;1.92;;;24.00;82.60;;;;;;5091229;28;20538;-62
2022/07/08 08:41:59;;;;;;;5.60;1.88;;;23.80;79.70;;;;;;5113465;28;20027;-62
2022/07/08 08:44:26;;;;;;;6.38;2.08;;;23.90;83.20;;;;;;5115601;28;20121;-62
2022/07/08 08:46:52;;;;;;;4.25;1.67;;;24.00;79.80;;;;;;5090452;28;20447;-74
2022/07/08 08:49:18;;;;;;;6.30;2.00;;;23.80;82.50;;;;;;5103254;28;20051;-75
2022/07/08 08:51:44;;;;;;;5.50;1.90;;;24.10;82.70;;;;;;5096209;28;20047;-75
2022/07/08 08:54:10;;;;;;;5.68;2.00;;;;;;;;;;5095085;28;20126;-74
2022/07/08 08:56:36;;;;;;;5.70;1.83;;;23.90;83.20;;;;;;5080282;28;20059;-71
2022/07/08 08:59:01;;;;;;;12.55;2.75;;;23.90;79.80;;;;;;5079662;28;20032;-76
2022/07/08 09:01:30;;;;;;;8.27;2.35;;;24.00;82.80;;;;;;5078256;28;20044;-63
2022/07/08 09:03:57;;;;;;;11.70;2.10;;;24.00;83.00;;;;;;5082069;28;20060;-62
2022/07/08 09:06:23;;;;;;;13.18;2.10;;;;;;;;;;5060001;28;20137;-69
2022/07/08 09:08:49;;;;;;;12.55;2.20;;;23.70;83.00;;;;;;5096660;28;20079;-62
2022/07/08 09:11:17;;;;;;;8.05;2.05;;;;;;;;;;5094646;28;20044;-77
2022/07/08 09:13:43;;;;;;;7.28;1.60;;;;;;;;;;5099524;28;20401;-76
2022/07/08 09:16:09;;;;;;;5.90;1.55;;;23.90;83.40;;;;;;5094775;28;20442;-76
2022/07/08 09:18:35;;;;;;;8.98;2.00;;;23.70;83.50;;;;;;5095589;28;20078;-77
2022/07/08 09:21:01;;;;;;;7.78;1.70;;;23.60;81.20;;;;;;5111208;28;20040;-61
2022/07/08 09:23:31;;;;;;;10.80;2.40;;;23.60;83.40;;;;;;5110675;28;20757;-63
2022/07/08 09:26:02;;;;;;;10.45;1.83;;;23.80;83.70;;;;;;5113986;28;20512;-62
2022/07/08 09:28:39;;;;;;;6.78;2.05;;;23.80;83.70;;;;;;5112882;28;20043;-62
2022/07/08 09:31:06;;;;;;;9.45;2.45;;;23.80;83.80;;;;;;5098894;28;20114;-62
2022/07/08 09:33:31;;;;;;;12.43;2.33;;;23.90;83.00;;;;;;5109681;28;20090;-73
2022/07/08 09:36:00;;;;;;;7.50;2.35;;;23.50;83.70;;;;;;5095994;28;20390;-76
2022/07/08 09:38:27;;;;;;;8.00;2.30;;;23.90;84.50;;;;;;5084987;28;20048;-75
2022/07/08 09:40:59;;;;;;;9.70;1.95;;;23.80;81.40;;;;;;5092382;28;20058;-76
2022/07/08 09:43:25;;;;;;;;;;;24.00;80.00;;;;;;5113375;28;20086;-69
2022/07/08 09:45:51;;;;;;;12.27;2.45;;;23.70;83.70;;;;;;5100600;28;19959;-67
2022/07/08 09:48:17;;;;;;;13.50;2.40;;;24.00;84.40;;;;;;5097686;28;20040;-76
2022/07/08 09:50:44;;;;;;;6.30;1.95;;;24.00;84.30;;;;;;5087980;28;20510;-63
2022/07/08 09:53:20;;;;;;;8.52;1.90;;;23.80;84.50;;;;;;5096080;28;20047;-77
2022/07/08 09:55:49;;;;;;;8.23;2.00;;;23.60;80.30;;;;;;5086343;28;20055;-65
2022/07/08 09:58:15;;;;;;;8.52;2.25;;;24.00;84.30;;;;;;5056603;28;20463;-73
2022/07/08 10:00:42;;;;;;;9.18;2.03;;;23.90;84.60;;;;;;5058971;28;20105;-64
2022/07/08 10:03:08;;;;;;;7.95;2.53;;;23.90;84.20;;;;;;5093389;28;20485;-63
2022/07/08 10:05:33;;;;;;;9.43;1.98;;;23.80;84.10;;;;;;5091911;28;20051;-64
2022/07/08 10:07:59;;;;;;;5.75;2.10;;;23.70;84.30;;;;;;5094398;28;20044;-68
2022/07/08 10:10:25;;;;;;;8.20;2.25;;;24.00;84.20;;;;;;5094905;28;20051;-63
2022/07/08 10:12:57;;;;;;;6.90;2.33;;;23.90;81.30;;;;;;5080876;28;20362;-63
2022/07/08 10:15:24;;;;;;;6.05;1.77;;;23.70;84.00;;;;;;5046156;28;20086;-69
2022/07/08 10:17:50;;;;;;;11.68;2.55;;;23.70;84.70;;;;;;5071421;28;20434;-63
2022/07/08 10:20:15;;;;;;;10.27;2.53;;;24.00;84.50;;;;;;5089474;28;20048;-74
2022/07/08 10:22:41;;;;;;;4.45;2.15;;;23.90;84.80;;;;;;5059468;28;20078;-66
2022/07/08 10:25:08;;;;;;;6.85;2.33;;;24.10;84.80;;;;;;5058088;28;20409;-72
2022/07/08 10:27:35;;;;;;;6.45;2.28;;;23.80;84.40;;;;;;5093641;28;20058;-71
2022/07/08 10:30:17;;;;;;;16.50;3.05;;;24.10;84.60;;;;;;5107048;28;20051;-65
2022/07/08 10:32:49;;;;;;;9.35;2.22;;;24.20;84.70;;;;;;5100637;28;20182;-64
2022/07/08 10:35:19;;;;;;;12.07;1.90;;;24.20;84.80;;;;;;5077725;28;20039;-63
2022/07/08 10:38:05;;;;;;;11.18;2.45;;;24.30;84.40;;;;;;5109426;28;20491;-71
2022/07/08 10:40:50;;;;;;;10.57;2.53;;;24.30;85.10;;;;;;5098776;28;20056;-74
2022/07/08 10:43:19;;;;;;;10.63;2.67;;;24.20;84.70;;;;;;5094289;28;20056;-73
2022/07/08 10:46:11;;;;;;;8.68;2.58;;;24.40;85.10;;;;;;5113405;28;20040;-67
2022/07/08 10:48:39;;;;;;;10.02;2.33;;;23.80;85.20;;;;;;5110789;28;20035;-68
2022/07/08 10:51:05;;;;;;;7.95;2.47;;;24.40;82.10;;;;;;5102986;28;20189;-73
2022/07/08 10:53:54;;;;;;;8.65;2.30;;;24.10;81.50;;;;;;5103240;28;20131;-74
2022/07/08 10:56:44;;;;;;;10.38;2.30;;;24.40;85.00;;;;;;4994902;28;20069;-69
2022/07/08 10:59:19;;;;;;;7.10;2.13;;;24.20;84.40;;;;;;5010212;28;20063;-62
2022/07/08 11:01:51;;;;;;;9.82;2.60;;;24.50;82.30;;;;;;5011397;28;20065;-62
2022/07/08 11:04:35;;;;;;;7.65;2.60;;;24.50;81.20;;;;;;4998354;28;20073;-64
2022/07/08 11:07:28;;;;;;;8.35;2.95;;;24.30;82.30;;;;;;5001007;28;20050;-62
2022/07/08 11:09:57;;;;;;;6.00;2.53;;;24.40;81.20;;;;;;5000648;28;20105;-72
2022/07/08 11:12:27;;;;;;;8.65;3.15;;;24.70;80.60;;;;;;4992345;28;20050;-72
2022/07/08 11:14:55;;;;;;;6.50;2.22;;;24.40;82.00;;;;;;5002149;28;20060;-65
2022/07/08 11:17:22;;;;;;;7.03;2.40;;;24.70;82.20;;;;;;4979560;28;20050;-62
2022/07/08 11:19:48;;;;;;;7.45;2.60;;;24.40;84.90;;;;;;5007799;28;20098;-72
2022/07/08 11:22:14;;;;;;;7.30;2.47;;;24.60;84.90;;;;;;4993474;28;20519;-68
2022/07/08 11:24:41;;;;;;;8.07;2.50;;;24.60;84.80;;;;;;5004441;28;20129;-71
2022/07/08 11:27:07;;;;;;;7.25;2.70;;;24.60;84.70;;;;;;4978991;28;20050;-62
2022/07/08 11:29:33;;;;;;;8.85;2.67;;;24.70;85.00;;;;;;4978521;28;20101;-73
2022/07/08 11:32:00;;;;;;;7.30;2.50;;;24.80;82.80;;;;;;4980763;28;20065;-68
2022/07/08 11:34:26;;;;;;;8.23;2.95;;;24.50;84.40;;;;;;5092461;28;20123;-64
2022/07/08 11:37:00;;;;;;;7.25;2.63;;;24.80;81.70;;;;;;5113462;27;20544;-73
2022/07/08 11:39:26;;;;;;;8.73;2.78;;;24.60;84.30;;;;;;5098706;28;20105;-66
2022/07/08 11:41:52;;;;;;;6.90;2.45;;;24.60;84.30;;;;;;5108216;27;20448;-71
2022/07/08 11:44:20;;;;;;;6.78;2.30;;;24.70;85.10;;;;;;5116674;28;20043;-73
2022/07/08 11:46:50;;;;;;;7.90;2.55;;;24.80;84.70;;;;;;5112938;28;20047;-73
2022/07/08 11:49:16;;;;;;;6.90;2.10;;;24.80;84.40;;;;;;5115913;28;20048;-73
2022/07/08 11:51:49;;;;;;;5.30;2.25;;;24.70;84.60;;;;;;5093315;28;20134;-62
2022/07/08 11:54:16;;;;;;;6.68;2.67;;;24.70;80.50;;;;;;5087863;28;20138;-72
2022/07/08 11:56:42;;;;;;;5.55;2.50;;;24.90;84.60;;;;;;5111605;28;20048;-76
2022/07/08 11:59:08;;;;;;;8.23;2.80;;;24.80;81.10;;;;;;5081854;28;20044;-74
2022/07/08 12:01:35;;;;;;;9.02;2.70;;;24.70;81.80;;;;;;5107621;28;20473;-74
2022/07/08 12:04:06;;;;;;;9.40;2.83;;;24.90;84.60;;;;;;5115759;27;20048;-74
2022/07/08 12:06:33;;;;;;;8.68;2.35;;;24.80;84.50;;;;;;5112495;28;20043;-74
2022/07/08 12:09:06;;;;;;;9.63;2.90;;;25.10;82.10;;;;;;5108509;27;20040;-74
2022/07/08 12:11:38;;;;;;;8.95;2.47;;;25.10;81.90;;;;;;5108670;28;20118;-73
2022/07/08 12:14:07;;;;;;;8.20;3.00;;;25.00;84.60;;;;;;5096130;28;20508;-75
2022/07/08 12:16:44;;;;;;;10.60;3.30;;;25.10;82.10;;;;;;5096912;28;20059;-74
2022/07/08 12:19:30;;;;;;;11.18;3.92;;;24.90;80.60;;;;;;5114970;28;20054;-75
2022/07/08 12:21:57;;;;;;;10.57;3.35;;;24.90;81.70;;;;;;5098510;28;20051;-74
2022/07/08 12:24:28;;;;;;;8.48;3.13;;;25.10;84.50;;;;;;5115660;28;20079;-75
2022/07/08 12:26:57;;;;;;;7.88;3.10;;;25.10;82.10;;;;;;5116304;28;20388;-74
2022/07/08 12:29:27;;;;;;;8.77;3.20;;;25.00;81.90;;;;;;5096404;28;20052;-75
2022/07/08 12:31:53;;;;;;;6.88;2.90;;;25.00;80.40;;;;;;5114963;27;20040;-75
2022/07/08 12:34:21;;;;;;;10.52;3.00;;;25.00;85.00;;;;;;5115384;28;20050;-62
2022/07/08 12:36:46;;;;;;;10.85;2.95;;;24.90;84.90;;;;;;5098135;28;20079;-62
2022/07/08 12:39:21;;;;;;;6.57;2.38;;;25.00;85.20;;;;;;5078425;28;20072;-62
2022/07/08 12:42:05;;;;;;;7.20;2.90;;;24.90;80.50;;;;;;5108244;27;20156;-62
2022/07/08 12:44:39;;;;;;;7.13;2.58;;;24.90;84.60;;;;;;5095520;28;20036;-62
2022/07/08 12:47:06;;;;;;;5.28;2.17;;;25.10;81.20;;;;;;5088598;28;20044;-61
2022/07/08 12:49:32;;;;;;;8.50;2.83;;;24.90;84.70;;;;;;5095342;28;20452;-62
2022/07/08 12:51:59;;;;;;;7.75;2.63;;;24.90;82.10;;;;;;5095407;28;20048;-62
2022/07/08 12:54:24;;;;;;;9.25;2.38;;;25.00;82.10;;;;;;5101278;28;20040;-74